sensor_id;sensor_type;location;lat;lon;timestamp;temperature;humidity
42201;DHT22;27869;51.442;7.540;2023-04-25T00:00:01;6.50;99.90
42201;DHT22;27869;51.442;7.540;2023-04-25T00:02:29;6.50;99.90
42201;DHT22;27869;51.442;7.540;2023-04-25T00:04:57;6.50;99.90
42201;DHT22;27869;51.442;7.540;2023-04-25T00:07:25;6.50;99.90
42201;DHT22;27869;51.442;7.540;2023-04-25T00:09:53;6.50;99.90
42201;DHT22;27869;51.442;7.540;2023-04-25T00:12:20;6.50;99.90
42201;DHT22;27869;51.442;7.540;2023-04-25T00:14:48;6.40;99.90
42201;DHT22;27869;51.442;7.540;2023-04-25T00:17:16;6.50;99.90
42201;DHT22;27869;51.442;7.540;2023-04-25T00:19:44;6.50;99.90
42201;DHT22;27869;51.442;7.540;2023-04-25T00:22:11;6.50;99.90
42201;DHT22;27869;51.442;7.540;2023-04-25T00:24:38;6.50;99.90
42201;DHT22;27869;51.442;7.540;2023-04-25T00:27:07;6.50;99.90
42201;DHT22;27869;51.442;7.540;2023-04-25T00:29:33;6.50;99.90
42201;DHT22;27869;51.442;7.540;2023-04-25T00:32:01;6.50;99.90
42201;DHT22;27869;51.442;7.540;2023-04-25T00:34:27;6.60;99.90
42201;DHT22;27869;51.442;7.540;2023-04-25T00:36:55;6.60;99.90
42201;DHT22;27869;51.442;7.540;2023-04-25T00:39:22;6.60;99.90
42201;DHT22;27869;51.442;7.540;2023-04-25T00:41:50;6.60;99.90
42201;DHT22;27869;51.442;7.540;2023-04-25T00:44:19;6.60;99.90
42201;DHT22;27869;51.442;7.540;2023-04-25T00:46:47;6.60;99.90
42201;DHT22;27869;51.442;7.540;2023-04-25T00:49:14;6.60;99.90
42201;DHT22;27869;51.442;7.540;2023-04-25T00:51:43;6.60;99.90
42201;DHT22;27869;51.442;7.540;2023-04-25T00:54:11;6.60;99.90
42201;DHT22;27869;51.442;7.540;2023-04-25T00:56:38;6.70;99.90
42201;DHT22;27869;51.442;7.540;2023-04-25T00:59:05;6.70;99.90
42201;DHT22;27869;51.442;7.540;2023-04-25T01:01:34;6.70;99.90
42201;DHT22;27869;51.442;7.540;2023-04-25T01:04:01;6.70;99.90
42201;DHT22;27869;51.442;7.540;2023-04-25T01:06:28;6.70;99.90
42201;DHT22;27869;51.442;7.540;2023-04-25T01:08:56;6.70;99.90
42201;DHT22;27869;51.442;7.540;2023-04-25T01:11:23;6.60;99.90
42201;DHT22;27869;51.442;7.540;2023-04-25T01:13:50;6.60;99.90
42201;DHT22;27869;51.442;7.540;2023-04-25T01:16:17;6.70;99.90
42201;DHT22;27869;51.442;7.540;2023-04-25T01:18:45;6.70;99.90
42201;DHT22;27869;51.442;7.540;2023-04-25T01:21:14;6.70;99.90
42201;DHT22;27869;51.442;7.540;2023-04-25T01:23:42;6.70;99.90
42201;DHT22;27869;51.442;7.540;2023-04-25T01:26:10;6.70;99.90
42201;DHT22;27869;51.442;7.540;2023-04-25T01:28:38;6.70;99.90
42201;DHT22;27869;51.442;7.540;2023-04-25T01:31:06;6.70;99.90
42201;DHT22;27869;51.442;7.540;2023-04-25T01:33:33;6.70;99.90
42201;DHT22;27869;51.442;7.540;2023-04-25T01:36:00;6.70;99.90
42201;DHT22;27869;51.442;7.540;2023-04-25T01:38:28;6.70;99.90
42201;DHT22;27869;51.442;7.540;2023-04-25T01:40:56;6.70;99.90
42201;DHT22;27869;51.442;7.540;2023-04-25T01:43:23;6.70;99.90
42201;DHT22;27869;51.442;7.540;2023-04-25T01:45:50;6.70;99.90
42201;DHT22;27869;51.442;7.540;2023-04-25T01:48:17;6.70;99.90
42201;DHT22;27869;51.442;7.540;2023-04-25T01:50:45;6.70;99.90
42201;DHT22;27869;51.442;7.540;2023-04-25T01:53:13;6.70;99.90
42201;DHT22;27869;51.442;7.540;2023-04-25T01:55:42;6.70;99.90
42201;DHT22;27869;51.442;7.540;2023-04-25T01:58:09;6.70;99.90
42201;DHT22;27869;51.442;7.540;2023-04-25T02:00:38;6.70;99.90
42201;DHT22;27869;51.442;7.540;2023-04-25T02:03:06;6.60;99.90
42201;DHT22;27869;51.442;7.540;2023-04-25T02:05:37;6.60;99.90
42201;DHT22;27869;51.442;7.540;2023-04-25T02:08:06;6.60;99.90
42201;DHT22;27869;51.442;7.540;2023-04-25T02:10:34;6.50;99.90
42201;DHT22;27869;51.442;7.540;2023-04-25T02:13:02;6.50;99.90
42201;DHT22;27869;51.442;7.540;2023-04-25T02:15:30;6.50;99.90
42201;DHT22;27869;51.442;7.540;2023-04-25T02:17:57;6.50;99.90
42201;DHT22;27869;51.442;7.540;2023-04-25T02:20:26;6.50;99.90
42201;DHT22;27869;51.442;7.540;2023-04-25T02:22:53;6.50;99.90
42201;DHT22;27869;51.442;7.540;2023-04-25T02:25:20;6.50;99.90
42201;DHT22;27869;51.442;7.540;2023-04-25T02:27:48;6.60;99.90
42201;DHT22;27869;51.442;7.540;2023-04-25T02:30:17;6.50;99.90
42201;DHT22;27869;51.442;7.540;2023-04-25T02:32:44;6.50;99.90
42201;DHT22;27869;51.442;7.540;2023-04-25T02:35:11;6.50;99.90
42201;DHT22;27869;51.442;7.540;2023-04-25T02:37:39;6.50;99.90
42201;DHT22;27869;51.442;7.540;2023-04-25T02:40:07;6.50;99.90
42201;DHT22;27869;51.442;7.540;2023-04-25T02:42:34;6.50;99.90
42201;DHT22;27869;51.442;7.540;2023-04-25T02:45:02;6.50;99.90
42201;DHT22;27869;51.442;7.540;2023-04-25T02:47:33;6.50;99.90
42201;DHT22;27869;51.442;7.540;2023-04-25T02:50:00;6.50;99.90
42201;DHT22;27869;51.442;7.540;2023-04-25T02:52:26;6.50;99.90
42201;DHT22;27869;51.442;7.540;2023-04-25T02:54:53;6.50;99.90
42201;DHT22;27869;51.442;7.540;2023-04-25T02:57:20;6.50;99.90
42201;DHT22;27869;51.442;7.540;2023-04-25T02:59:47;6.50;99.90
42201;DHT22;27869;51.442;7.540;2023-04-25T03:02:14;6.40;99.90
42201;DHT22;27869;51.442;7.540;2023-04-25T03:04:42;6.40;99.90
42201;DHT22;27869;51.442;7.540;2023-04-25T03:07:10;6.40;99.90
42201;DHT22;27869;51.442;7.540;2023-04-25T03:09:37;6.40;99.90
42201;DHT22;27869;51.442;7.540;2023-04-25T03:12:04;6.40;99.90
42201;DHT22;27869;51.442;7.540;2023-04-25T03:14:31;6.40;99.90
42201;DHT22;27869;51.442;7.540;2023-04-25T03:16:58;6.40;99.90
42201;DHT22;27869;51.442;7.540;2023-04-25T03:19:25;6.40;99.90
42201;DHT22;27869;51.442;7.540;2023-04-25T03:21:53;6.30;99.90
42201;DHT22;27869;51.442;7.540;2023-04-25T03:24:20;6.30;99.90
42201;DHT22;27869;51.442;7.540;2023-04-25T03:26:47;6.30;99.90
42201;DHT22;27869;51.442;7.540;2023-04-25T03:29:14;6.30;99.90
42201;DHT22;27869;51.442;7.540;2023-04-25T03:31:41;6.30;99.90
42201;DHT22;27869;51.442;7.540;2023-04-25T03:34:07;6.30;99.90
42201;DHT22;27869;51.442;7.540;2023-04-25T03:36:35;6.30;99.90
42201;DHT22;27869;51.442;7.540;2023-04-25T03:39:03;6.30;99.90
42201;DHT22;27869;51.442;7.540;2023-04-25T03:41:30;6.30;99.90
42201;DHT22;27869;51.442;7.540;2023-04-25T03:43:56;6.30;99.90
42201;DHT22;27869;51.442;7.540;2023-04-25T03:46:23;6.30;99.90
42201;DHT22;27869;51.442;7.540;2023-04-25T03:48:50;6.30;99.90
42201;DHT22;27869;51.442;7.540;2023-04-25T03:51:17;6.30;99.90
42201;DHT22;27869;51.442;7.540;2023-04-25T03:53:44;6.30;99.90
42201;DHT22;27869;51.442;7.540;2023-04-25T03:56:12;6.30;99.90
42201;DHT22;27869;51.442;7.540;2023-04-25T03:58:39;6.30;99.90
42201;DHT22;27869;51.442;7.540;2023-04-25T04:01:06;6.30;99.90
42201;DHT22;27869;51.442;7.540;2023-04-25T04:03:33;6.30;99.90
42201;DHT22;27869;51.442;7.540;2023-04-25T04:06:01;6.30;99.90
42201;DHT22;27869;51.442;7.540;2023-04-25T04:08:29;6.30;99.90
42201;DHT22;27869;51.442;7.540;2023-04-25T04:10:56;6.30;99.90
42201;DHT22;27869;51.442;7.540;2023-04-25T04:13:25;6.30;99.90
42201;DHT22;27869;51.442;7.540;2023-04-25T04:15:52;6.30;99.90
42201;DHT22;27869;51.442;7.540;2023-04-25T04:18:19;6.30;99.90
42201;DHT22;27869;51.442;7.540;2023-04-25T04:20:46;6.30;99.90
42201;DHT22;27869;51.442;7.540;2023-04-25T04:23:13;6.20;99.90
42201;DHT22;27869;51.442;7.540;2023-04-25T04:25:40;6.30;99.90
42201;DHT22;27869;51.442;7.540;2023-04-25T04:28:07;6.30;99.90
42201;DHT22;27869;51.442;7.540;2023-04-25T04:30:35;6.30;99.90
42201;DHT22;27869;51.442;7.540;2023-04-25T04:33:03;6.30;99.90
42201;DHT22;27869;51.442;7.540;2023-04-25T04:35:30;6.20;99.90
42201;DHT22;27869;51.442;7.540;2023-04-25T04:37:56;6.20;99.90
42201;DHT22;27869;51.442;7.540;2023-04-25T04:40:23;6.10;99.90
42201;DHT22;27869;51.442;7.540;2023-04-25T04:42:51;6.00;99.90
42201;DHT22;27869;51.442;7.540;2023-04-25T04:45:18;6.00;99.90
42201;DHT22;27869;51.442;7.540;2023-04-25T04:47:47;5.90;99.90
42201;DHT22;27869;51.442;7.540;2023-04-25T04:50:15;5.80;99.90
42201;DHT22;27869;51.442;7.540;2023-04-25T04:52:42;5.80;99.90
42201;DHT22;27869;51.442;7.540;2023-04-25T04:55:09;5.80;99.90
42201;DHT22;27869;51.442;7.540;2023-04-25T04:57:36;5.80;99.90
42201;DHT22;27869;51.442;7.540;2023-04-25T05:00:05;5.80;99.90
42201;DHT22;27869;51.442;7.540;2023-04-25T05:02:36;5.80;99.90
42201;DHT22;27869;51.442;7.540;2023-04-25T05:05:05;5.80;99.90
42201;DHT22;27869;51.442;7.540;2023-04-25T05:07:32;5.80;99.90
42201;DHT22;27869;51.442;7.540;2023-04-25T05:09:59;5.80;99.90
42201;DHT22;27869;51.442;7.540;2023-04-25T05:12:26;5.80;99.90
42201;DHT22;27869;51.442;7.540;2023-04-25T05:14:53;5.80;99.90
42201;DHT22;27869;51.442;7.540;2023-04-25T05:17:19;5.80;99.90
42201;DHT22;27869;51.442;7.540;2023-04-25T05:19:46;5.80;99.90
42201;DHT22;27869;51.442;7.540;2023-04-25T05:22:15;5.80;99.90
42201;DHT22;27869;51.442;7.540;2023-04-25T05:24:41;5.80;99.90
42201;DHT22;27869;51.442;7.540;2023-04-25T05:27:08;5.80;99.90
42201;DHT22;27869;51.442;7.540;2023-04-25T05:29:35;5.80;99.90
42201;DHT22;27869;51.442;7.540;2023-04-25T05:32:02;5.80;99.90
42201;DHT22;27869;51.442;7.540;2023-04-25T05:34:29;5.80;99.90
42201;DHT22;27869;51.442;7.540;2023-04-25T05:36:56;5.80;99.90
42201;DHT22;27869;51.442;7.540;2023-04-25T05:39:24;5.80;99.90
42201;DHT22;27869;51.442;7.540;2023-04-25T05:41:51;5.80;99.90
42201;DHT22;27869;51.442;7.540;2023-04-25T05:44:18;5.80;99.90
42201;DHT22;27869;51.442;7.540;2023-04-25T05:46:45;5.90;99.90
42201;DHT22;27869;51.442;7.540;2023-04-25T05:49:13;5.90;99.90
42201;DHT22;27869;51.442;7.540;2023-04-25T05:51:39;5.90;99.90
42201;DHT22;27869;51.442;7.540;2023-04-25T05:54:06;5.90;99.90
42201;DHT22;27869;51.442;7.540;2023-04-25T05:56:34;5.90;99.90
42201;DHT22;27869;51.442;7.540;2023-04-25T05:59:01;5.90;99.90
42201;DHT22;27869;51.442;7.540;2023-04-25T06:01:28;5.90;99.90
42201;DHT22;27869;51.442;7.540;2023-04-25T06:03:55;5.90;99.90
42201;DHT22;27869;51.442;7.540;2023-04-25T06:06:22;6.00;99.90
42201;DHT22;27869;51.442;7.540;2023-04-25T06:08:49;6.00;99.90
42201;DHT22;27869;51.442;7.540;2023-04-25T06:11:16;6.10;99.90
42201;DHT22;27869;51.442;7.540;2023-04-25T06:13:45;6.10;99.90
42201;DHT22;27869;51.442;7.540;2023-04-25T06:16:12;6.10;99.90
42201;DHT22;27869;51.442;7.540;2023-04-25T06:18:39;6.10;99.90
42201;DHT22;27869;51.442;7.540;2023-04-25T06:21:06;6.20;99.90
42201;DHT22;27869;51.442;7.540;2023-04-25T06:23:32;6.20;99.90
42201;DHT22;27869;51.442;7.540;2023-04-25T06:25:59;6.30;99.90
42201;DHT22;27869;51.442;7.540;2023-04-25T06:28:26;6.30;99.90
42201;DHT22;27869;51.442;7.540;2023-04-25T06:30:54;6.40;99.90
42201;DHT22;27869;51.442;7.540;2023-04-25T06:33:21;6.50;99.90
42201;DHT22;27869;51.442;7.540;2023-04-25T06:35:49;6.50;99.90
42201;DHT22;27869;51.442;7.540;2023-04-25T06:38:16;6.50;99.90
42201;DHT22;27869;51.442;7.540;2023-04-25T06:40:43;6.50;99.90
42201;DHT22;27869;51.442;7.540;2023-04-25T06:43:10;6.60;99.90
42201;DHT22;27869;51.442;7.540;2023-04-25T06:45:37;6.60;99.90
42201;DHT22;27869;51.442;7.540;2023-04-25T06:48:05;6.60;99.90
42201;DHT22;27869;51.442;7.540;2023-04-25T06:50:33;6.60;99.90
42201;DHT22;27869;51.442;7.540;2023-04-25T06:53:00;6.70;99.90
42201;DHT22;27869;51.442;7.540;2023-04-25T06:55:28;6.70;99.90
42201;DHT22;27869;51.442;7.540;2023-04-25T06:57:55;6.70;99.90
42201;DHT22;27869;51.442;7.540;2023-04-25T07:00:22;6.80;99.90
42201;DHT22;27869;51.442;7.540;2023-04-25T07:02:49;6.80;99.90
42201;DHT22;27869;51.442;7.540;2023-04-25T07:05:18;6.90;99.90
42201;DHT22;27869;51.442;7.540;2023-04-25T07:07:44;7.00;99.90
42201;DHT22;27869;51.442;7.540;2023-04-25T07:10:11;7.10;99.90
42201;DHT22;27869;51.442;7.540;2023-04-25T07:12:38;7.20;99.90
42201;DHT22;27869;51.442;7.540;2023-04-25T07:15:06;7.30;99.90
42201;DHT22;27869;51.442;7.540;2023-04-25T07:17:35;7.30;99.90
42201;DHT22;27869;51.442;7.540;2023-04-25T07:20:02;7.30;99.90
42201;DHT22;27869;51.442;7.540;2023-04-25T07:22:32;7.30;99.90
42201;DHT22;27869;51.442;7.540;2023-04-25T07:24:59;7.30;99.90
42201;DHT22;27869;51.442;7.540;2023-04-25T07:27:26;7.40;99.90
42201;DHT22;27869;51.442;7.540;2023-04-25T07:29:53;7.40;99.90
42201;DHT22;27869;51.442;7.540;2023-04-25T07:32:20;7.50;99.90
42201;DHT22;27869;51.442;7.540;2023-04-25T07:34:47;7.60;99.90
42201;DHT22;27869;51.442;7.540;2023-04-25T07:37:14;7.60;99.90
42201;DHT22;27869;51.442;7.540;2023-04-25T07:39:42;7.70;99.90
42201;DHT22;27869;51.442;7.540;2023-04-25T07:42:09;7.70;99.90
42201;DHT22;27869;51.442;7.540;2023-04-25T07:44:36;7.70;99.90
42201;DHT22;27869;51.442;7.540;2023-04-25T07:47:05;7.70;99.90
42201;DHT22;27869;51.442;7.540;2023-04-25T07:49:33;7.70;99.90
42201;DHT22;27869;51.442;7.540;2023-04-25T07:52:00;7.80;99.90
42201;DHT22;27869;51.442;7.540;2023-04-25T07:54:27;7.80;99.90
42201;DHT22;27869;51.442;7.540;2023-04-25T07:56:56;7.80;99.90
42201;DHT22;27869;51.442;7.540;2023-04-25T07:59:23;7.70;99.90
42201;DHT22;27869;51.442;7.540;2023-04-25T08:01:50;7.80;99.90
42201;DHT22;27869;51.442;7.540;2023-04-25T08:04:17;7.80;99.90
42201;DHT22;27869;51.442;7.540;2023-04-25T08:06:44;7.90;99.90
42201;DHT22;27869;51.442;7.540;2023-04-25T08:09:11;8.00;99.90
42201;DHT22;27869;51.442;7.540;2023-04-25T08:11:38;8.00;99.90
42201;DHT22;27869;51.442;7.540;2023-04-25T08:14:06;8.10;99.90
42201;DHT22;27869;51.442;7.540;2023-04-25T08:16:33;8.10;99.90
42201;DHT22;27869;51.442;7.540;2023-04-25T08:19:00;8.10;99.90
42201;DHT22;27869;51.442;7.540;2023-04-25T08:21:27;8.10;99.90
42201;DHT22;27869;51.442;7.540;2023-04-25T08:23:54;8.10;99.90
42201;DHT22;27869;51.442;7.540;2023-04-25T08:26:22;8.10;99.90
42201;DHT22;27869;51.442;7.540;2023-04-25T08:28:48;8.10;99.90
42201;DHT22;27869;51.442;7.540;2023-04-25T08:31:17;8.10;99.90
42201;DHT22;27869;51.442;7.540;2023-04-25T08:33:44;8.20;99.90
42201;DHT22;27869;51.442;7.540;2023-04-25T08:36:11;8.20;99.90
42201;DHT22;27869;51.442;7.540;2023-04-25T08:38:38;8.20;99.90
42201;DHT22;27869;51.442;7.540;2023-04-25T08:41:05;8.20;99.90
42201;DHT22;27869;51.442;7.540;2023-04-25T08:43:34;8.20;99.90
42201;DHT22;27869;51.442;7.540;2023-04-25T08:46:03;8.30;99.90
42201;DHT22;27869;51.442;7.540;2023-04-25T08:48:33;8.40;99.90
42201;DHT22;27869;51.442;7.540;2023-04-25T08:51:02;8.50;99.90
42201;DHT22;27869;51.442;7.540;2023-04-25T08:53:32;8.50;99.90
42201;DHT22;27869;51.442;7.540;2023-04-25T08:56:00;8.60;99.90
42201;DHT22;27869;51.442;7.540;2023-04-25T08:58:28;8.60;99.90
42201;DHT22;27869;51.442;7.540;2023-04-25T09:00:56;8.60;99.90
42201;DHT22;27869;51.442;7.540;2023-04-25T09:03:23;8.60;99.90
42201;DHT22;27869;51.442;7.540;2023-04-25T09:05:52;8.70;99.90
42201;DHT22;27869;51.442;7.540;2023-04-25T09:08:20;8.70;99.90
42201;DHT22;27869;51.442;7.540;2023-04-25T09:10:47;8.80;99.90
42201;DHT22;27869;51.442;7.540;2023-04-25T09:13:17;8.90;99.90
42201;DHT22;27869;51.442;7.540;2023-04-25T09:15:52;8.90;99.90
42201;DHT22;27869;51.442;7.540;2023-04-25T09:18:22;8.80;99.90
42201;DHT22;27869;51.442;7.540;2023-04-25T09:20:52;8.80;99.90
42201;DHT22;27869;51.442;7.540;2023-04-25T09:23:20;8.80;99.90
42201;DHT22;27869;51.442;7.540;2023-04-25T09:25:48;8.80;99.90
42201;DHT22;27869;51.442;7.540;2023-04-25T09:28:16;8.70;99.90
42201;DHT22;27869;51.442;7.540;2023-04-25T09:30:43;8.70;99.90
42201;DHT22;27869;51.442;7.540;2023-04-25T09:33:12;8.70;99.90
42201;DHT22;27869;51.442;7.540;2023-04-25T09:35:40;8.70;99.90
42201;DHT22;27869;51.442;7.540;2023-04-25T09:38:10;8.70;99.90
42201;DHT22;27869;51.442;7.540;2023-04-25T09:40:41;8.80;99.90
42201;DHT22;27869;51.442;7.540;2023-04-25T09:43:18;8.90;99.90
42201;DHT22;27869;51.442;7.540;2023-04-25T09:45:45;9.00;99.90
42201;DHT22;27869;51.442;7.540;2023-04-25T09:48:17;9.10;99.90
42201;DHT22;27869;51.442;7.540;2023-04-25T09:50:45;9.20;99.90
42201;DHT22;27869;51.442;7.540;2023-04-25T09:53:13;9.40;99.90
42201;DHT22;27869;51.442;7.540;2023-04-25T09:55:41;9.50;99.90
42201;DHT22;27869;51.442;7.540;2023-04-25T09:58:11;9.50;99.90
42201;DHT22;27869;51.442;7.540;2023-04-25T10:00:38;9.40;99.90
42201;DHT22;27869;51.442;7.540;2023-04-25T10:03:06;9.40;99.90
42201;DHT22;27869;51.442;7.540;2023-04-25T10:05:34;9.30;99.90
42201;DHT22;27869;51.442;7.540;2023-04-25T10:08:03;9.30;99.90
42201;DHT22;27869;51.442;7.540;2023-04-25T10:10:33;9.20;99.90
42201;DHT22;27869;51.442;7.540;2023-04-25T10:13:04;9.20;99.90
42201;DHT22;27869;51.442;7.540;2023-04-25T10:15:34;9.20;99.90
42201;DHT22;27869;51.442;7.540;2023-04-25T10:18:02;9.20;99.90
42201;DHT22;27869;51.442;7.540;2023-04-25T10:20:30;9.20;99.90
42201;DHT22;27869;51.442;7.540;2023-04-25T10:23:03;9.20;99.90
42201;DHT22;27869;51.442;7.540;2023-04-25T10:25:34;9.30;99.90
42201;DHT22;27869;51.442;7.540;2023-04-25T10:28:03;9.40;99.90
42201;DHT22;27869;51.442;7.540;2023-04-25T10:30:30;9.50;99.90
42201;DHT22;27869;51.442;7.540;2023-04-25T10:32:59;9.60;99.90
42201;DHT22;27869;51.442;7.540;2023-04-25T10:35:27;9.70;99.90
42201;DHT22;27869;51.442;7.540;2023-04-25T10:38:04;9.80;99.90
42201;DHT22;27869;51.442;7.540;2023-04-25T10:40:32;10.00;99.90
42201;DHT22;27869;51.442;7.540;2023-04-25T10:46:00;10.20;99.90
42201;DHT22;27869;51.442;7.540;2023-04-25T10:48:28;10.30;99.90
42201;DHT22;27869;51.442;7.540;2023-04-25T10:51:07;10.30;99.90
42201;DHT22;27869;51.442;7.540;2023-04-25T10:53:35;10.40;99.90
42201;DHT22;27869;51.442;7.540;2023-04-25T10:56:09;10.40;99.90
42201;DHT22;27869;51.442;7.540;2023-04-25T10:58:42;10.40;99.90
42201;DHT22;27869;51.442;7.540;2023-04-25T11:01:10;10.40;99.90
42201;DHT22;27869;51.442;7.540;2023-04-25T11:03:41;10.30;99.90
42201;DHT22;27869;51.442;7.540;2023-04-25T11:06:30;10.30;99.90
42201;DHT22;27869;51.442;7.540;2023-04-25T11:09:01;10.20;99.90
42201;DHT22;27869;51.442;7.540;2023-04-25T11:11:29;10.10;99.90
42201;DHT22;27869;51.442;7.540;2023-04-25T11:13:56;10.10;99.90
42201;DHT22;27869;51.442;7.540;2023-04-25T11:16:25;10.00;99.90
42201;DHT22;27869;51.442;7.540;2023-04-25T11:18:52;10.00;99.90
42201;DHT22;27869;51.442;7.540;2023-04-25T11:21:19;9.90;99.90
42201;DHT22;27869;51.442;7.540;2023-04-25T11:23:46;9.90;99.90
42201;DHT22;27869;51.442;7.540;2023-04-25T11:26:13;9.90;99.90
42201;DHT22;27869;51.442;7.540;2023-04-25T11:28:40;9.90;99.90
42201;DHT22;27869;51.442;7.540;2023-04-25T11:31:11;9.80;99.90
42201;DHT22;27869;51.442;7.540;2023-04-25T11:33:39;9.80;99.90
42201;DHT22;27869;51.442;7.540;2023-04-25T11:36:07;9.80;99.90
42201;DHT22;27869;51.442;7.540;2023-04-25T11:38:34;9.80;99.90
42201;DHT22;27869;51.442;7.540;2023-04-25T11:41:01;9.80;99.90
42201;DHT22;27869;51.442;7.540;2023-04-25T11:43:28;9.80;99.90
42201;DHT22;27869;51.442;7.540;2023-04-25T11:45:55;9.80;99.90
42201;DHT22;27869;51.442;7.540;2023-04-25T11:48:22;9.70;99.90
42201;DHT22;27869;51.442;7.540;2023-04-25T11:50:51;9.70;99.90
42201;DHT22;27869;51.442;7.540;2023-04-25T11:53:18;9.60;99.90
42201;DHT22;27869;51.442;7.540;2023-04-25T11:55:45;9.60;99.90
42201;DHT22;27869;51.442;7.540;2023-04-25T11:58:12;9.50;99.90
42201;DHT22;27869;51.442;7.540;2023-04-25T12:00:42;9.50;99.90
42201;DHT22;27869;51.442;7.540;2023-04-25T12:03:09;9.50;99.90
42201;DHT22;27869;51.442;7.540;2023-04-25T12:05:36;9.50;99.90
42201;DHT22;27869;51.442;7.540;2023-04-25T12:08:14;9.50;99.90
42201;DHT22;27869;51.442;7.540;2023-04-25T12:10:43;9.50;99.90
42201;DHT22;27869;51.442;7.540;2023-04-25T12:13:28;9.50;99.90
42201;DHT22;27869;51.442;7.540;2023-04-25T12:15:55;9.50;99.90
42201;DHT22;27869;51.442;7.540;2023-04-25T12:18:24;9.50;99.90
42201;DHT22;27869;51.442;7.540;2023-04-25T12:20:54;9.50;99.90
42201;DHT22;27869;51.442;7.540;2023-04-25T12:23:26;9.50;99.90
42201;DHT22;27869;51.442;7.540;2023-04-25T12:25:54;9.50;99.90
42201;DHT22;27869;51.442;7.540;2023-04-25T12:28:22;9.50;99.90
42201;DHT22;27869;51.442;7.540;2023-04-25T12:30:57;9.50;99.90
42201;DHT22;27869;51.442;7.540;2023-04-25T12:33:25;9.50;99.90
42201;DHT22;27869;51.442;7.540;2023-04-25T12:35:52;9.60;99.90
42201;DHT22;27869;51.442;7.540;2023-04-25T12:38:23;9.60;99.90
42201;DHT22;27869;51.442;7.540;2023-04-25T12:40:52;9.60;99.90
42201;DHT22;27869;51.442;7.540;2023-04-25T12:43:19;9.60;99.90
42201;DHT22;27869;51.442;7.540;2023-04-25T12:45:48;9.70;99.90
42201;DHT22;27869;51.442;7.540;2023-04-25T12:48:16;9.70;99.90
42201;DHT22;27869;51.442;7.540;2023-04-25T12:50:43;9.70;99.90
42201;DHT22;27869;51.442;7.540;2023-04-25T12:53:10;9.70;99.90
42201;DHT22;27869;51.442;7.540;2023-04-25T12:55:37;9.80;99.90
42201;DHT22;27869;51.442;7.540;2023-04-25T12:58:06;9.90;99.90
42201;DHT22;27869;51.442;7.540;2023-04-25T13:00:33;10.00;99.90
42201;DHT22;27869;51.442;7.540;2023-04-25T13:03:00;10.10;99.90
42201;DHT22;27869;51.442;7.540;2023-04-25T13:05:27;10.10;99.90
42201;DHT22;27869;51.442;7.540;2023-04-25T13:07:55;10.10;99.90
42201;DHT22;27869;51.442;7.540;2023-04-25T13:10:22;10.10;99.90
42201;DHT22;27869;51.442;7.540;2023-04-25T13:12:49;10.00;99.90
42201;DHT22;27869;51.442;7.540;2023-04-25T13:15:18;10.00;99.90
42201;DHT22;27869;51.442;7.540;2023-04-25T13:17:45;9.90;99.90
42201;DHT22;27869;51.442;7.540;2023-04-25T13:20:12;9.90;99.90
42201;DHT22;27869;51.442;7.540;2023-04-25T13:22:41;10.00;99.90
42201;DHT22;27869;51.442;7.540;2023-04-25T13:25:08;10.00;99.90
42201;DHT22;27869;51.442;7.540;2023-04-25T13:27:36;9.90;99.90
42201;DHT22;27869;51.442;7.540;2023-04-25T13:30:06;10.00;99.90
42201;DHT22;27869;51.442;7.540;2023-04-25T13:32:35;10.00;99.90
42201;DHT22;27869;51.442;7.540;2023-04-25T13:35:06;10.00;99.90
42201;DHT22;27869;51.442;7.540;2023-04-25T13:37:34;9.90;99.90
42201;DHT22;27869;51.442;7.540;2023-04-25T13:40:02;9.80;99.90
42201;DHT22;27869;51.442;7.540;2023-04-25T13:42:30;9.80;99.90
42201;DHT22;27869;51.442;7.540;2023-04-25T13:44:57;9.70;99.00
42201;DHT22;27869;51.442;7.540;2023-04-25T13:47:26;9.70;99.90
42201;DHT22;27869;51.442;7.540;2023-04-25T13:49:55;9.60;99.90
42201;DHT22;27869;51.442;7.540;2023-04-25T13:52:22;9.70;99.90
42201;DHT22;27869;51.442;7.540;2023-04-25T13:54:49;9.70;99.90
42201;DHT22;27869;51.442;7.540;2023-04-25T13:57:17;9.70;99.90
42201;DHT22;27869;51.442;7.540;2023-04-25T13:59:44;9.80;99.90
42201;DHT22;27869;51.442;7.540;2023-04-25T14:02:11;9.90;99.90
42201;DHT22;27869;51.442;7.540;2023-04-25T14:04:38;9.90;99.90
42201;DHT22;27869;51.442;7.540;2023-04-25T14:07:06;10.00;99.90
42201;DHT22;27869;51.442;7.540;2023-04-25T14:09:34;10.00;99.90
42201;DHT22;27869;51.442;7.540;2023-04-25T14:12:01;9.90;99.90
42201;DHT22;27869;51.442;7.540;2023-04-25T14:14:28;9.80;99.90
42201;DHT22;27869;51.442;7.540;2023-04-25T14:16:55;9.70;99.90
42201;DHT22;27869;51.442;7.540;2023-04-25T14:19:23;9.70;99.90
42201;DHT22;27869;51.442;7.540;2023-04-25T14:21:50;9.70;99.90
42201;DHT22;27869;51.442;7.540;2023-04-25T14:24:18;9.60;99.90
42201;DHT22;27869;51.442;7.540;2023-04-25T14:26:46;9.70;99.90
42201;DHT22;27869;51.442;7.540;2023-04-25T14:29:12;9.60;99.90
42201;DHT22;27869;51.442;7.540;2023-04-25T14:31:40;9.70;99.90
42201;DHT22;27869;51.442;7.540;2023-04-25T14:34:07;9.70;99.90
42201;DHT22;27869;51.442;7.540;2023-04-25T14:36:36;9.80;99.90
42201;DHT22;27869;51.442;7.540;2023-04-25T14:39:03;9.90;99.90
42201;DHT22;27869;51.442;7.540;2023-04-25T14:41:32;9.90;99.90
42201;DHT22;27869;51.442;7.540;2023-04-25T14:43:58;9.90;99.90
42201;DHT22;27869;51.442;7.540;2023-04-25T14:46:25;10.00;99.90
42201;DHT22;27869;51.442;7.540;2023-04-25T14:48:53;10.00;99.90
42201;DHT22;27869;51.442;7.540;2023-04-25T14:51:21;10.00;99.90
42201;DHT22;27869;51.442;7.540;2023-04-25T14:53:48;10.10;99.90
42201;DHT22;27869;51.442;7.540;2023-04-25T14:56:15;10.10;99.90
42201;DHT22;27869;51.442;7.540;2023-04-25T14:58:43;10.20;99.90
42201;DHT22;27869;51.442;7.540;2023-04-25T15:01:11;10.30;99.90
42201;DHT22;27869;51.442;7.540;2023-04-25T15:03:38;10.30;99.90
42201;DHT22;27869;51.442;7.540;2023-04-25T15:06:06;10.30;99.90
42201;DHT22;27869;51.442;7.540;2023-04-25T15:08:33;10.20;99.90
42201;DHT22;27869;51.442;7.540;2023-04-25T15:11:01;10.20;99.90
42201;DHT22;27869;51.442;7.540;2023-04-25T15:13:28;10.20;99.90
42201;DHT22;27869;51.442;7.540;2023-04-25T15:15:57;10.20;99.90
42201;DHT22;27869;51.442;7.540;2023-04-25T15:18:24;10.20;99.90
42201;DHT22;27869;51.442;7.540;2023-04-25T15:20:51;10.20;99.90
42201;DHT22;27869;51.442;7.540;2023-04-25T15:23:19;10.10;99.90
42201;DHT22;27869;51.442;7.540;2023-04-25T15:25:47;10.10;99.90
42201;DHT22;27869;51.442;7.540;2023-04-25T15:28:14;10.10;99.90
42201;DHT22;27869;51.442;7.540;2023-04-25T15:30:44;10.00;99.90
42201;DHT22;27869;51.442;7.540;2023-04-25T15:33:12;9.90;99.90
42201;DHT22;27869;51.442;7.540;2023-04-25T15:35:40;9.90;99.90
42201;DHT22;27869;51.442;7.540;2023-04-25T15:38:07;9.90;99.90
42201;DHT22;27869;51.442;7.540;2023-04-25T15:40:35;9.80;99.90
42201;DHT22;27869;51.442;7.540;2023-04-25T15:43:02;9.90;99.90
42201;DHT22;27869;51.442;7.540;2023-04-25T15:45:29;9.90;99.90
42201;DHT22;27869;51.442;7.540;2023-04-25T15:47:57;10.00;99.90
42201;DHT22;27869;51.442;7.540;2023-04-25T15:50:27;10.00;99.90